Terminal Aerodrome Forecast
Issued by NWS Cleveland, OH

Home | Current Version | Previous Version | Graphics & Text | Print | Product List | Glossary On
Versions: 1 2 3 4 5 6 7 8 9 10 11 12 13 14 15 16 17 18 19
000
FTUS41 KCLE 011739
TAFCAK
TAF
KCAK 011739Z 0118/0218 24008KT P6SM BKN015 OVC035
      TEMPO 0118/0122 SCT015 OVC035
     FM012200 36006KT 3SM BR BKN008 OVC012
     FM020500 05004KT 2SM -SHRA VCTS OVC005CB
     FM021100 34007KT 1SM BR OVC003=

USA.gov is the U.S. government's official web portal to all federal, state and local government web resources and services.